Time;durP1;ratioP1;P1;durP2;ratioP2;P2;SDS_P1;SDS_P2;PMS_P1;PMS_P2;Temp;Humidity;BMP_temperature;BMP_pressure;BME280_temperature;BME280_humidity;BME280_pressure;Samples;Min_cycle;Max_cycle;Signal;HPM_P1;HPM_P2
2022/08/18 00:04:46;;;;;;;7.22;5.80;;;21.90;99.90;;;;;;10253405;28;20035;-69
2022/08/18 00:09:51;;;;;;;8.90;6.63;;;21.90;99.90;;;;;;10249515;28;20146;-69
2022/08/18 00:14:54;;;;;;;11.65;6.82;;;21.80;99.90;;;;;;10255190;28;20054;-69
2022/08/18 00:19:55;;;;;;;8.52;6.03;;;21.80;99.90;;;;;;10249032;28;20066;-69
2022/08/18 00:24:57;;;;;;;12.45;7.35;;;21.80;99.90;;;;;;10256064;28;20051;-69
2022/08/18 00:30:01;;;;;;;8.50;6.13;;;21.70;99.90;;;;;;10255369;28;20051;-69
2022/08/18 00:35:19;;;;;;;11.70;6.82;;;21.70;99.90;;;;;;10259003;28;20042;-69
2022/08/18 00:40:27;;;;;;;9.00;6.20;;;21.60;99.90;;;;;;10252470;28;20126;-69
2022/08/18 00:45:32;;;;;;;7.65;6.10;;;21.60;99.90;;;;;;10246976;28;20039;-69
2022/08/18 00:50:43;;;;;;;8.70;7.25;;;21.60;99.90;;;;;;10252647;28;20050;-69
2022/08/18 00:55:47;;;;;;;10.68;6.60;;;21.60;99.90;;;;;;10253595;28;20047;-69
2022/08/18 01:00:56;;;;;;;8.57;6.97;;;21.60;99.90;;;;;;10249827;28;20062;-69
2022/08/18 01:06:20;;;;;;;10.63;6.32;;;21.60;99.90;;;;;;10257406;28;20055;-69
2022/08/18 01:11:22;;;;;;;8.25;6.10;;;21.50;99.90;;;;;;10251949;28;20062;-69
2022/08/18 01:22:06;;;;;;;8.77;5.68;;;21.50;99.90;;;;;;10244962;28;20062;-69
2022/08/18 01:27:08;;;;;;;7.03;5.20;;;21.50;99.90;;;;;;10249858;28;20371;-69
2022/08/18 01:32:18;;;;;;;7.20;5.45;;;21.50;99.90;;;;;;10234547;28;20070;-69
2022/08/18 01:37:23;;;;;;;7.25;5.65;;;21.40;99.90;;;;;;10256267;28;20047;-69
2022/08/18 01:42:24;;;;;;;6.90;5.85;;;21.40;99.90;;;;;;10261199;28;20047;-69
2022/08/18 01:47:27;;;;;;;12.35;5.93;;;21.40;99.90;;;;;;10260220;28;20694;-69
2022/08/18 01:52:34;;;;;;;6.90;5.82;;;21.40;99.90;;;;;;10256632;28;20122;-72
2022/08/18 01:57:43;;;;;;;8.77;5.38;;;21.40;99.90;;;;;;10255359;28;20611;-72
2022/08/18 02:02:48;;;;;;;8.27;6.07;;;21.40;99.90;;;;;;10249719;28;20042;-72
2022/08/18 02:08:03;;;;;;;8.52;7.00;;;21.50;99.90;;;;;;10257642;28;20138;-72
2022/08/18 02:13:05;;;;;;;7.47;6.18;;;21.40;99.90;;;;;;10281689;28;20054;-69
2022/08/18 02:18:14;;;;;;;7.88;5.72;;;21.30;99.90;;;;;;10273914;28;20637;-69
2022/08/18 02:23:36;;;;;;;10.00;6.35;;;21.20;99.90;;;;;;10285509;28;20449;-69
2022/08/18 02:28:39;;;;;;;8.75;6.10;;;21.20;99.90;;;;;;10299389;28;20612;-69
2022/08/18 02:33:41;;;;;;;10.77;6.07;;;21.20;99.90;;;;;;10275630;28;20412;-69
2022/08/18 02:38:53;;;;;;;7.57;5.80;;;21.20;99.90;;;;;;10299716;28;20089;-69
2022/08/18 02:44:00;;;;;;;8.00;5.90;;;21.10;99.90;;;;;;10296441;28;20686;-69
2022/08/18 02:49:03;;;;;;;8.13;5.68;;;21.00;99.90;;;;;;10289789;28;20046;-71
2022/08/18 02:54:08;;;;;;;11.30;5.40;;;20.90;99.90;;;;;;10286473;28;20046;-71
2022/08/18 02:59:13;;;;;;;10.15;5.45;;;20.90;99.90;;;;;;10287447;28;20051;-71
2022/08/18 03:04:18;;;;;;;7.35;5.40;;;20.90;99.90;;;;;;10302012;28;20053;-71
2022/08/18 03:09:23;;;;;;;6.97;5.03;;;21.00;99.90;;;;;;10291679;28;20392;-71
2022/08/18 03:14:26;;;;;;;9.77;5.72;;;21.00;99.90;;;;;;10237688;28;20394;-70
2022/08/18 03:19:28;;;;;;;11.23;6.47;;;21.00;99.90;;;;;;10252608;28;20382;-70
2022/08/18 03:24:30;;;;;;;9.57;6.05;;;21.00;99.90;;;;;;10250889;28;20102;-71
2022/08/18 03:29:34;;;;;;;11.05;5.90;;;20.90;99.90;;;;;;10251081;28;20047;-71
2022/08/18 03:34:36;;;;;;;8.27;6.28;;;20.90;99.90;;;;;;10242958;28;20059;-71
2022/08/18 03:39:39;;;;;;;10.32;5.90;;;20.90;99.90;;;;;;10257627;28;20544;-70
2022/08/18 03:44:41;;;;;;;11.88;5.63;;;20.80;99.90;;;;;;10253036;28;20110;-71
2022/08/18 03:49:43;;;;;;;9.63;6.85;;;20.80;99.90;;;;;;10250515;28;20051;-70
2022/08/18 03:54:45;;;;;;;9.02;7.50;;;20.70;99.90;;;;;;10250500;28;20051;-69
2022/08/18 03:59:47;;;;;;;7.63;4.88;;;20.70;99.90;;;;;;10239481;28;20540;-69
2022/08/18 04:04:48;;;;;;;9.00;5.63;;;20.70;99.90;;;;;;10252933;28;20779;-69
2022/08/18 04:09:52;;;;;;;11.40;5.90;;;20.60;99.90;;;;;;10248465;28;20093;-69
2022/08/18 04:14:53;;;;;;;9.05;6.63;;;20.70;99.90;;;;;;10254090;28;20066;-69
2022/08/18 04:19:55;;;;;;;9.38;6.35;;;20.60;99.90;;;;;;10239162;28;20066;-68
2022/08/18 04:24:57;;;;;;;11.70;6.75;;;20.70;99.90;;;;;;10254362;28;20405;-69
2022/08/18 04:29:59;;;;;;;8.38;6.28;;;20.70;99.90;;;;;;10251289;28;20047;-68
2022/08/18 04:35:01;;;;;;;8.90;6.25;;;20.70;99.90;;;;;;10255798;28;20063;-68
2022/08/18 04:40:04;;;;;;;8.77;6.25;;;20.60;99.90;;;;;;10257648;28;20130;-69
2022/08/18 04:45:07;;;;;;;7.68;5.57;;;20.70;99.90;;;;;;10256703;28;20058;-69
2022/08/18 04:50:09;;;;;;;8.23;6.00;;;20.70;99.90;;;;;;10246658;28;20502;-69
2022/08/18 04:55:11;;;;;;;9.75;5.78;;;20.70;99.90;;;;;;10246049;28;20047;-69
2022/08/18 05:00:13;;;;;;;10.63;5.50;;;20.70;99.90;;;;;;10250461;28;20036;-68
2022/08/18 05:05:14;;;;;;;9.30;6.35;;;20.80;99.90;;;;;;10247176;28;20054;-69
2022/08/18 05:10:16;;;;;;;7.70;5.97;;;20.80;99.90;;;;;;10248625;28;20486;-69
2022/08/18 05:15:19;;;;;;;9.55;5.47;;;20.90;99.90;;;;;;10261020;28;20100;-68
2022/08/18 05:20:22;;;;;;;9.05;5.43;;;20.90;99.90;;;;;;10259205;28;20058;-69
2022/08/18 05:25:23;;;;;;;8.70;5.80;;;21.00;99.90;;;;;;10259802;28;20138;-69
2022/08/18 05:30:25;;;;;;;8.90;5.03;;;21.00;99.90;;;;;;10252612;28;20055;-68
2022/08/18 05:35:35;;;;;;;14.27;6.03;;;21.00;99.90;;;;;;10261582;28;20043;-68
2022/08/18 05:40:37;;;;;;;12.52;5.68;;;21.10;99.90;;;;;;10258547;28;20070;-69
2022/08/18 05:45:40;;;;;;;9.40;5.38;;;21.20;99.90;;;;;;10256606;28;20043;-64
2022/08/18 05:50:42;;;;;;;13.98;5.47;;;21.20;99.90;;;;;;10254330;28;20135;-64
2022/08/18 06:01:44;;;;;;;11.82;5.03;;;21.30;99.90;;;;;;10254160;28;20047;-64
2022/08/18 06:06:48;;;;;;;8.85;4.72;;;21.40;99.90;;;;;;10251421;28;20062;-63
2022/08/18 06:11:51;;;;;;;6.03;4.13;;;21.30;99.90;;;;;;10247972;28;20051;-61
2022/08/18 06:17:17;;;;;;;9.25;4.85;;;21.30;99.90;;;;;;10264399;28;20070;-62
2022/08/18 06:22:55;;;;;;;10.85;6.05;;;21.30;99.90;;;;;;10258455;28;20390;-61
2022/08/18 06:28:16;;;;;;;8.60;5.53;;;21.30;99.90;;;;;;10251755;28;20098;-61
2022/08/18 06:33:50;;;;;;;8.20;5.07;;;21.30;99.90;;;;;;10244716;28;20506;-61
2022/08/18 06:39:25;;;;;;;10.77;6.13;;;21.30;99.90;;;;;;10248925;28;20059;-61
2022/08/18 06:45:00;;;;;;;8.85;6.00;;;21.10;99.90;;;;;;10239876;28;20134;-62
2022/08/18 06:50:17;;;;;;;13.02;7.05;;;21.00;99.90;;;;;;10245132;28;20047;-61
2022/08/18 06:55:34;;;;;;;10.77;6.43;;;20.90;99.90;;;;;;10258839;28;20054;-61
2022/08/18 07:00:42;;;;;;;15.48;8.68;;;20.90;99.90;;;;;;10251748;28;20045;-61
2022/08/18 07:06:00;;;;;;;10.88;7.38;;;21.00;99.90;;;;;;10258239;28;20413;-61
2022/08/18 07:11:29;;;;;;;11.52;8.00;;;21.10;99.90;;;;;;10239613;28;20043;-61
2022/08/18 07:16:33;;;;;;;14.10;7.00;;;21.20;99.90;;;;;;10254145;28;20058;-61
2022/08/18 07:22:05;;;;;;;10.35;6.53;;;21.20;99.90;;;;;;10258952;28;20051;-62
2022/08/18 07:27:16;;;;;;;11.15;7.30;;;21.20;99.90;;;;;;10260422;28;20529;-61
2022/08/18 07:32:21;;;;;;;13.02;8.38;;;21.20;99.90;;;;;;10240238;28;20046;-61
2022/08/18 07:37:36;;;;;;;11.88;8.63;;;21.20;99.90;;;;;;10254418;28;20129;-61
2022/08/18 07:42:46;;;;;;;12.48;8.45;;;21.20;99.90;;;;;;10252718;28;20098;-63
2022/08/18 07:48:08;;;;;;;;;;;21.10;99.90;;;;;;10240400;28;20486;-63
2022/08/18 07:53:46;;;;;;;14.88;8.90;;;21.00;99.90;;;;;;10247587;28;20384;-63
2022/08/18 07:59:11;;;;;;;13.80;8.30;;;21.00;99.90;;;;;;10252550;28;20065;-63
2022/08/18 08:04:35;;;;;;;14.90;8.67;;;21.00;99.90;;;;;;10240786;28;20057;-63
2022/08/18 08:10:01;;;;;;;12.45;9.02;;;21.00;99.90;;;;;;10260005;28;20070;-63
2022/08/18 08:15:26;;;;;;;15.75;8.43;;;21.00;99.90;;;;;;10258919;28;20050;-64
2022/08/18 08:20:51;;;;;;;14.38;9.13;;;21.10;99.90;;;;;;10251807;28;20058;-64
2022/08/18 08:26:14;;;;;;;12.02;9.38;;;21.10;99.90;;;;;;10249141;28;20051;-64
2022/08/18 08:31:44;;;;;;;12.00;9.25;;;21.00;99.90;;;;;;10245124;28;20074;-63
2022/08/18 08:36:48;;;;;;;18.92;9.60;;;21.20;99.90;;;;;;10242427;28;20050;-64
2022/08/18 08:41:55;;;;;;;12.68;9.32;;;21.10;99.90;;;;;;10256900;28;20051;-64
2022/08/18 08:47:41;;;;;;;15.93;8.15;;;21.10;99.90;;;;;;10253839;28;20118;-64
2022/08/18 08:52:51;;;;;;;17.57;9.50;;;21.20;99.90;;;;;;10243708;28;20047;-64
2022/08/18 08:58:06;;;;;;;19.65;9.65;;;21.50;99.90;;;;;;10245253;28;20061;-64
2022/08/18 09:03:36;;;;;;;13.15;8.70;;;21.70;99.90;;;;;;10252329;28;20056;-64
2022/08/18 09:09:03;;;;;;;12.50;8.85;;;21.80;99.90;;;;;;10245748;28;20900;-63
2022/08/18 09:14:36;;;;;;;14.85;7.75;;;21.90;99.90;;;;;;10244592;28;20056;-63
2022/08/18 09:19:46;;;;;;;14.60;8.27;;;22.10;99.90;;;;;;10247289;28;20442;-64
2022/08/18 09:24:51;;;;;;;13.48;8.52;;;22.30;99.90;;;;;;10246044;28;20059;-64
2022/08/18 09:29:56;;;;;;;15.95;8.70;;;22.50;99.90;;;;;;10247951;28;20069;-64
2022/08/18 09:35:16;;;;;;;12.35;9.23;;;22.70;99.90;;;;;;10254988;28;20046;-64
2022/08/18 09:46:04;;;;;;;15.88;9.35;;;22.90;99.90;;;;;;10242971;28;20087;-64
2022/08/18 09:51:17;;;;;;;12.10;8.65;;;23.10;99.90;;;;;;10245072;28;20137;-64
2022/08/18 09:56:44;;;;;;;11.38;9.00;;;23.20;99.90;;;;;;10250298;28;20162;-64
2022/08/18 10:01:56;;;;;;;14.52;8.88;;;23.00;99.90;;;;;;10262386;28;20054;-64
2022/08/18 10:07:34;;;;;;;14.70;9.73;;;23.10;99.90;;;;;;10261481;28;20053;-62
2022/08/18 10:13:12;;;;;;;15.55;9.82;;;23.10;99.90;;;;;;10256552;28;20051;-64
2022/08/18 10:18:36;;;;;;;16.30;10.13;;;23.10;99.90;;;;;;10249529;28;20050;-64
2022/08/18 10:24:11;;;;;;;14.63;10.17;;;23.20;99.90;;;;;;10248487;28;20453;-64
2022/08/18 10:29:49;;;;;;;13.90;10.25;;;23.40;99.90;;;;;;10252932;28;20050;-64
2022/08/18 10:34:54;;;;;;;17.92;11.07;;;23.50;99.90;;;;;;10252347;28;20058;-64
2022/08/18 10:40:00;;;;;;;15.50;9.90;;;23.40;99.90;;;;;;10258819;28;20054;-63
2022/08/18 10:45:14;;;;;;;16.83;10.48;;;23.50;99.90;;;;;;10252266;28;20055;-64
2022/08/18 10:50:27;;;;;;;15.63;10.30;;;23.60;99.90;;;;;;10257125;28;20812;-65
2022/08/18 10:55:57;;;;;;;16.23;9.45;;;23.40;99.90;;;;;;10256344;28;20540;-64
2022/08/18 11:01:30;;;;;;;15.00;9.23;;;23.60;99.90;;;;;;10253611;28;20059;-64
2022/08/18 11:06:42;;;;;;;13.85;9.45;;;23.40;99.90;;;;;;10227488;28;20042;-65
2022/08/18 11:11:49;;;;;;;14.50;8.05;;;23.00;99.90;;;;;;10250065;28;20055;-64
2022/08/18 11:17:19;;;;;;;14.55;9.32;;;23.20;99.90;;;;;;10248882;28;20055;-64
2022/08/18 11:22:31;;;;;;;13.98;9.02;;;23.20;99.90;;;;;;10254623;28;20047;-64
2022/08/18 11:27:35;;;;;;;17.15;9.05;;;23.40;99.90;;;;;;10247815;28;20130;-65
2022/08/18 11:32:39;;;;;;;15.48;8.90;;;23.50;99.90;;;;;;10236551;28;20138;-64
2022/08/18 11:37:57;;;;;;;15.98;8.27;;;23.50;99.90;;;;;;10244284;28;20089;-69
2022/08/18 11:43:05;;;;;;;15.30;9.20;;;23.50;99.90;;;;;;10256926;28;20110;-69
2022/08/18 11:48:30;;;;;;;12.23;8.75;;;23.60;99.90;;;;;;10255056;28;20047;-70
2022/08/18 11:53:56;;;;;;;13.38;8.77;;;23.90;99.90;;;;;;10246181;28;20051;-70
2022/08/18 11:59:30;;;;;;;23.70;8.98;;;24.30;99.90;;;;;;10248356;28;20387;-68
2022/08/18 12:04:56;;;;;;;13.45;8.52;;;24.90;99.90;;;;;;10250756;28;20109;-71
2022/08/18 12:10:07;;;;;;;;;;;25.50;99.90;;;;;;10243791;28;20055;-70
2022/08/18 12:15:19;;;;;;;10.32;6.93;;;25.90;99.90;;;;;;10244611;28;20009;-70
2022/08/18 12:20:26;;;;;;;7.63;6.20;;;26.10;99.90;;;;;;10255408;28;20078;-70
2022/08/18 12:25:27;;;;;;;8.85;6.38;;;26.50;99.90;;;;;;10247900;28;20394;-70
2022/08/18 12:30:29;;;;;;;7.78;6.65;;;26.50;99.90;;;;;;10254575;28;20070;-70
2022/08/18 12:35:33;;;;;;;11.48;6.82;;;27.10;99.90;;;;;;10253890;28;20512;-71
2022/08/18 12:40:35;;;;;;;13.13;6.22;;;27.60;99.90;;;;;;10251587;28;20053;-71
2022/08/18 12:45:37;;;;;;;7.90;5.53;;;27.70;99.90;;;;;;10249117;28;20058;-70
2022/08/18 12:50:40;;;;;;;8.38;6.65;;;27.80;99.90;;;;;;10249589;28;20086;-71
2022/08/18 12:55:56;;;;;;;13.45;6.20;;;28.10;99.90;;;;;;10252898;28;20440;-71
2022/08/18 13:00:58;;;;;;;6.18;4.28;;;28.60;99.90;;;;;;10248594;28;20047;-71
2022/08/18 13:05:59;;;;;;;4.90;4.30;;;28.70;99.60;;;;;;10246029;28;20145;-71
2022/08/18 13:11:04;;;;;;;6.82;3.90;;;29.20;98.90;;;;;;10261414;28;20050;-69
2022/08/18 13:16:17;;;;;;;5.80;4.35;;;29.60;97.90;;;;;;10289014;28;20077;-70
2022/08/18 13:21:40;;;;;;;5.63;4.38;;;30.10;96.60;;;;;;10289945;28;20136;-69
2022/08/18 13:26:45;;;;;;;6.15;5.07;;;30.10;96.00;;;;;;10287750;28;20096;-70
2022/08/18 13:31:54;;;;;;;7.28;5.25;;;30.70;95.00;;;;;;10298341;28;20129;-69
2022/08/18 13:36:58;;;;;;;7.30;4.70;;;30.90;94.90;;;;;;10304125;28;20128;-70
2022/08/18 13:42:01;;;;;;;6.47;4.32;;;31.50;94.40;;;;;;10298115;28;20394;-70
2022/08/18 13:47:26;;;;;;;5.10;4.60;;;32.20;92.40;;;;;;10300213;28;20046;-70
2022/08/18 13:52:28;;;;;;;4.60;3.90;;;32.40;91.40;;;;;;10306748;28;20053;-70
2022/08/18 13:57:48;;;;;;;5.28;3.65;;;32.60;90.40;;;;;;10298810;28;20470;-70
2022/08/18 14:02:52;;;;;;;4.68;3.53;;;32.60;87.90;;;;;;10296981;28;20050;-69
2022/08/18 14:07:54;;;;;;;3.73;3.40;;;33.10;88.80;;;;;;10294728;28;20070;-70
2022/08/18 14:12:59;;;;;;;6.95;3.53;;;32.70;86.00;;;;;;10278367;28;20065;-69
2022/08/18 14:18:10;;;;;;;6.18;4.10;;;32.50;87.50;;;;;;10296823;28;20112;-69
2022/08/18 14:28:38;;;;;;;4.15;3.80;;;32.00;87.70;;;;;;10293548;28;20048;-70
2022/08/18 14:33:43;;;;;;;5.43;4.47;;;31.70;88.10;;;;;;10289625;28;20558;-70
2022/08/18 14:38:52;;;;;;;4.57;4.18;;;31.30;88.20;;;;;;10282852;28;20132;-70
2022/08/18 14:43:57;;;;;;;6.47;4.38;;;30.80;89.70;;;;;;10297655;28;20113;-69
2022/08/18 14:49:14;;;;;;;5.50;4.85;;;30.70;90.20;;;;;;10295772;28;20042;-70
2022/08/18 14:54:30;;;;;;;;;;;30.80;90.20;;;;;;10290091;28;20047;-70
2022/08/18 14:59:32;;;;;;;5.20;4.20;;;30.80;89.70;;;;;;10280176;28;19929;-69
2022/08/18 15:04:38;;;;;;;5.43;4.93;;;30.70;88.50;;;;;;10293648;28;20565;-69
2022/08/18 15:09:58;;;;;;;4.70;4.30;;;30.40;90.30;;;;;;10284819;28;20061;-70
2022/08/18 15:15:17;;;;;;;6.10;4.53;;;30.20;90.40;;;;;;10257494;28;20047;-68
2022/08/18 15:20:24;;;;;;;6.85;4.78;;;30.00;90.90;;;;;;10254767;28;20062;-69
2022/08/18 15:25:45;;;;;;;6.32;5.00;;;29.70;91.20;;;;;;10255177;28;20059;-69
2022/08/18 15:30:52;;;;;;;6.32;4.93;;;29.40;90.30;;;;;;10255541;28;20047;-69
2022/08/18 15:36:15;;;;;;;5.18;4.68;;;29.20;91.10;;;;;;10245685;28;20121;-68
2022/08/18 15:41:34;;;;;;;5.35;4.55;;;29.00;91.00;;;;;;10242125;28;20039;-68
2022/08/18 15:46:47;;;;;;;5.35;4.70;;;28.80;91.50;;;;;;10249377;28;20070;-69
2022/08/18 15:51:54;;;;;;;6.63;4.80;;;28.70;91.90;;;;;;10244874;28;20591;-68
2022/08/18 15:56:57;;;;;;;7.32;3.92;;;28.50;92.20;;;;;;10255804;28;20046;-67
2022/08/18 16:01:59;;;;;;;3.80;3.25;;;28.30;91.50;;;;;;10256850;28;20489;-68
2022/08/18 16:07:01;;;;;;;5.13;3.30;;;28.10;91.40;;;;;;10249174;28;20461;-66
2022/08/18 16:12:03;;;;;;;4.13;3.33;;;27.90;91.60;;;;;;10255070;28;20051;-66
2022/08/18 16:17:05;;;;;;;3.65;2.72;;;27.90;91.60;;;;;;10243850;28;20048;-68
2022/08/18 16:22:18;;;;;;;2.75;2.50;;;27.70;91.00;;;;;;10249391;28;20031;-68
2022/08/18 16:27:22;;;;;;;5.13;2.22;;;27.60;91.20;;;;;;10245151;28;20046;-68
2022/08/18 16:32:24;;;;;;;2.90;2.63;;;27.40;91.50;;;;;;10265078;28;20047;-68
2022/08/18 16:37:26;;;;;;;3.25;2.47;;;27.30;91.70;;;;;;10256736;28;20051;-67
2022/08/18 16:42:31;;;;;;;4.25;2.92;;;27.20;92.20;;;;;;10251181;28;20044;-65
2022/08/18 16:47:37;;;;;;;3.53;3.23;;;27.20;92.20;;;;;;10254005;28;20085;-66
2022/08/18 16:52:40;;;;;;;4.53;4.00;;;27.10;92.50;;;;;;10255789;28;20279;-65
2022/08/18 17:08:26;;;;;;;8.18;4.57;;;27.00;93.80;;;;;;10253513;28;20054;-68
2022/08/18 17:13:28;;;;;;;5.88;4.35;;;26.90;94.20;;;;;;10262277;28;20078;-71
2022/08/18 17:18:30;;;;;;;6.22;5.63;;;26.80;94.70;;;;;;10260030;28;20043;-70
2022/08/18 17:23:33;;;;;;;9.05;5.85;;;26.70;95.00;;;;;;10259404;28;20050;-70
2022/08/18 17:28:43;;;;;;;9.30;6.45;;;26.50;95.50;;;;;;10260086;28;20055;-69
2022/08/18 17:34:02;;;;;;;7.53;6.13;;;26.40;95.90;;;;;;10256169;28;20059;-70
2022/08/18 17:39:07;;;;;;;11.85;6.13;;;26.30;96.30;;;;;;10260463;28;20051;-69
2022/08/18 17:44:08;;;;;;;9.07;6.28;;;26.10;96.60;;;;;;10254117;28;20055;-69
2022/08/18 17:51:32;;;;;;;11.63;6.45;;;26.00;97.00;;;;;;10260468;28;20047;-70
2022/08/18 17:54:51;;;;;;;8.13;6.38;;;25.90;97.50;;;;;;10266052;28;20045;-71
2022/08/18 18:00:10;;;;;;;8.20;6.72;;;25.80;97.70;;;;;;10259048;28;20047;-69
2022/08/18 18:05:17;;;;;;;10.73;7.00;;;25.60;98.10;;;;;;10263198;28;20046;-67
2022/08/18 18:10:33;;;;;;;9.70;6.72;;;25.50;98.40;;;;;;10251127;28;20506;-66
2022/08/18 18:15:44;;;;;;;8.43;5.78;;;25.40;98.80;;;;;;10253302;28;20051;-66
2022/08/18 18:21:01;;;;;;;10.95;6.40;;;25.30;98.90;;;;;;10250140;28;20054;-67
2022/08/18 18:26:24;;;;;;;12.15;6.68;;;25.20;99.40;;;;;;10233467;28;20051;-66
2022/08/18 18:31:34;;;;;;;9.95;6.65;;;25.10;99.80;;;;;;10255547;28;20046;-66
2022/08/18 18:36:46;;;;;;;11.38;6.65;;;24.90;99.90;;;;;;10258051;28;20521;-66
2022/08/18 18:41:52;;;;;;;9.88;6.72;;;24.80;99.90;;;;;;10256504;28;20498;-66
2022/08/18 18:47:05;;;;;;;7.70;6.63;;;24.60;99.90;;;;;;10238833;28;20090;-65
2022/08/18 18:52:24;;;;;;;9.18;6.28;;;24.60;99.90;;;;;;10259814;28;20062;-66
2022/08/18 18:58:08;;;;;;;8.88;6.55;;;24.40;99.90;;;;;;10248800;28;20039;-65
2022/08/18 19:03:14;;;;;;;9.93;6.60;;;24.10;99.90;;;;;;10260395;28;20524;-66
2022/08/18 19:08:47;;;;;;;11.43;7.18;;;23.90;99.90;;;;;;10255769;28;20047;-66
2022/08/18 19:14:08;;;;;;;11.05;7.60;;;23.70;99.90;;;;;;10245748;28;20083;-65
2022/08/18 19:19:22;;;;;;;10.05;6.22;;;23.50;99.90;;;;;;10240621;28;20487;-66
2022/08/18 19:24:51;;;;;;;11.90;7.65;;;23.40;99.90;;;;;;10251077;28;20118;-66
2022/08/18 19:29:59;;;;;;;11.23;7.00;;;23.30;99.90;;;;;;10249349;28;20138;-65
2022/08/18 19:35:00;;;;;;;10.77;7.05;;;23.20;99.90;;;;;;10256241;28;20417;-65
2022/08/18 19:40:20;;;;;;;11.32;7.53;;;23.10;99.90;;;;;;10262472;28;20054;-64
2022/08/18 19:45:34;;;;;;;13.57;7.47;;;23.10;99.90;;;;;;10255703;28;20063;-67
2022/08/18 19:50:51;;;;;;;11.15;6.80;;;23.10;99.90;;;;;;10257683;28;20051;-66
2022/08/18 19:56:18;;;;;;;11.13;7.22;;;23.00;99.90;;;;;;10254494;28;20097;-65
2022/08/18 20:01:55;;;;;;;12.02;7.55;;;23.00;99.90;;;;;;10241383;28;20440;-65
2022/08/18 20:07:26;;;;;;;11.63;7.22;;;23.00;99.90;;;;;;10242358;28;20058;-67
2022/08/18 20:12:47;;;;;;;13.68;7.90;;;23.00;99.90;;;;;;10244593;28;20043;-65
2022/08/18 20:18:18;;;;;;;12.07;7.60;;;23.00;99.90;;;;;;10254414;28;20383;-65
2022/08/18 20:23:37;;;;;;;9.23;6.65;;;23.00;99.90;;;;;;10254296;28;20106;-66
2022/08/18 20:28:39;;;;;;;10.82;6.80;;;23.00;99.90;;;;;;10230449;28;20509;-65
2022/08/18 20:34:02;;;;;;;8.35;6.32;;;23.00;99.90;;;;;;10255203;28;20122;-65
2022/08/18 20:39:47;;;;;;;10.90;6.50;;;23.00;99.90;;;;;;10246778;28;20055;-64
2022/08/18 20:44:49;;;;;;;10.02;6.45;;;23.00;99.90;;;;;;10256142;28;20546;-62
2022/08/18 20:49:57;;;;;;;9.23;6.50;;;22.90;99.90;;;;;;10249652;28;20612;-60
2022/08/18 20:55:03;;;;;;;10.30;7.57;;;22.80;99.90;;;;;;10247559;28;20126;-60
2022/08/18 21:00:19;;;;;;;10.00;6.95;;;22.80;99.90;;;;;;10251459;28;20114;-62
2022/08/18 21:05:39;;;;;;;9.65;6.53;;;22.70;99.90;;;;;;10248060;28;20082;-61
2022/08/18 21:10:58;;;;;;;10.48;7.60;;;22.60;99.90;;;;;;10252413;28;20053;-62
2022/08/18 21:15:59;;;;;;;9.80;6.70;;;22.50;99.90;;;;;;10244472;28;20051;-62
2022/08/18 21:21:05;;;;;;;11.05;7.32;;;22.50;99.90;;;;;;10250152;28;20113;-62
2022/08/18 21:26:12;;;;;;;13.10;7.32;;;22.40;99.90;;;;;;10248150;28;20520;-62
2022/08/18 21:31:37;;;;;;;10.00;7.43;;;22.30;99.90;;;;;;10249552;28;20080;-65
2022/08/18 21:36:54;;;;;;;10.13;6.88;;;22.20;99.90;;;;;;10237465;28;20051;-66
2022/08/18 21:41:57;;;;;;;9.57;7.13;;;22.10;99.90;;;;;;10242162;28;20055;-66
2022/08/18 21:47:12;;;;;;;14.25;7.78;;;22.00;99.90;;;;;;10240260;28;20058;-66
2022/08/18 21:52:23;;;;;;;12.68;7.47;;;21.80;99.90;;;;;;10245480;28;20046;-66
2022/08/18 21:57:28;;;;;;;11.05;6.90;;;21.70;99.90;;;;;;10245155;28;20058;-65
2022/08/18 22:02:30;;;;;;;11.30;7.43;;;21.60;99.90;;;;;;10254184;28;20296;-65
2022/08/18 22:07:33;;;;;;;9.52;7.45;;;21.60;99.90;;;;;;10257726;28;20059;-66
2022/08/18 22:18:01;;;;;;;11.93;7.50;;;21.50;99.90;;;;;;10255061;28;20398;-65
2022/08/18 22:28:32;;;;;;;11.30;6.32;;;21.40;99.90;;;;;;10247694;28;20062;-66
2022/08/18 22:33:34;;;;;;;11.15;6.72;;;21.40;99.90;;;;;;10252653;28;20054;-66
2022/08/18 22:38:36;;;;;;;10.70;6.45;;;21.30;99.90;;;;;;10238817;28;20502;-67
2022/08/18 22:43:37;;;;;;;12.05;7.38;;;21.30;99.90;;;;;;10254478;28;20043;-65
2022/08/18 22:48:39;;;;;;;9.98;6.35;;;21.40;99.90;;;;;;10253321;28;20055;-66
2022/08/18 22:53:41;;;;;;;10.07;6.70;;;21.30;99.90;;;;;;10255780;28;20069;-65
2022/08/18 22:58:45;;;;;;;12.95;7.30;;;21.30;99.90;;;;;;10254175;28;20765;-66
2022/08/18 23:03:47;;;;;;;10.07;6.53;;;21.40;99.90;;;;;;10249503;28;20045;-66
2022/08/18 23:08:48;;;;;;;12.73;6.50;;;21.40;99.90;;;;;;10253831;28;20055;-66
2022/08/18 23:13:59;;;;;;;12.35;6.88;;;21.40;99.90;;;;;;10260825;28;20490;-64
2022/08/18 23:19:01;;;;;;;10.23;6.63;;;21.40;99.90;;;;;;10254642;28;20062;-66
2022/08/18 23:24:04;;;;;;;10.77;6.93;;;21.40;99.90;;;;;;10252048;28;20051;-65
2022/08/18 23:29:10;;;;;;;11.85;7.28;;;21.50;99.90;;;;;;10250213;28;20043;-65
2022/08/18 23:34:16;;;;;;;10.10;6.90;;;21.40;99.90;;;;;;10244969;28;20054;-65
2022/08/18 23:39:17;;;;;;;10.23;7.00;;;21.40;99.90;;;;;;10251370;28;20043;-65
2022/08/18 23:44:21;;;;;;;10.32;6.57;;;21.50;99.90;;;;;;10241280;28;20058;-65
2022/08/18 23:49:29;;;;;;;11.90;6.88;;;21.50;99.90;;;;;;10250602;28;20138;-65
2022/08/18 23:54:33;;;;;;;13.00;7.25;;;21.40;99.90;;;;;;10251824;28;20047;-65
2022/08/18 23:59:35;;;;;;;12.77;7.70;;;21.40;99.90;;;;;;10238759;28;20062;-65
